Latest Coastal Weather Observations for Parndana

IDS60701

Issued at 8:15 pm CST Wednesday 20 August 2014 (issued every 10 minutes, with the page automatically refreshed every 10 minutes)

About coastal observations | Map of coastal stations | Coastal observations for SA | Marine services | Other Formats
Station Details ID: 022843 Name: PARNDANA CFS AWS Lat: -35.79 Lon: 137.25 Height: 165.0 m
Data from the previous 72 hours. | See also: Recent months at Parndana
Date/Time
CST
Temp

°C
Wind Pressure Rain
since 9am
mm
Weather Cloud Vis
km
Sea
Height
m
Swell
Dir
 
Speed
knots
Gust
knots
hPa Trend Height
m
Period
s
Dir
20/08:00pm 9.0 ENE 6 7 - - - - - - - - - -
20/07:30pm 8.9 E 5 7 - - - - - - - - - -
20/07:00pm 9.3 E 5 7 - - - - - - - - - -
20/06:30pm 9.6 ENE 5 7 - - - - - - - - - -
20/06:00pm 9.9 E 6 9 - - - - - - - - - -
20/05:30pm 10.4 ENE 5 6 - - - - - - - - - -
20/05:00pm 10.8 ENE 6 8 - - - - - - - - - -
20/04:30pm 10.9 ENE 6 8 - - - - - - - - - -
20/04:00pm 11.1 ENE 6 9 - - - - - - - - - -
20/03:30pm 11.2 E 7 9 - - - - - - - - - -
20/03:00pm 11.4 ENE 6 8 - - - - - - - - - -
20/02:30pm 11.6 NE 5 8 - - - - - - - - - -
20/02:00pm 11.7 ENE 5 7 - - - - - - - - - -
20/01:30pm 11.7 ENE 5 7 - - - - - - - - - -
20/01:00pm 11.7 NE 6 8 - - - - - - - - - -
20/12:30pm 11.8 NE 6 9 - - - - - - - - - -
20/12:00pm 11.3 NNE 5 8 - - - - - - - - - -
20/11:30am 11.8 NE 7 10 - - 0.0 - - - - - - -
20/11:00am 11.8 NE 8 11 - - 0.0 - - - - - - -
20/10:30am 11.6 NE 5 8 - - 0.0 - - - - - - -
20/09:00am 9.8 E 3 5 - - 1.2 Rain - - - - - -
20/08:30am 9.5 ESE 4 5 - - 1.0 - - - - - - -
20/08:00am 8.3 SE 4 5 - - 1.0 - - - - - - -
20/07:30am 7.6 CALM 0 0 - - 1.0 - - - - - - -
20/07:00am 7.8 E 3 5 - - 1.0 - - - - - - -
20/06:30am 7.6 CALM 0 0 - - 1.0 - - - - - - -
20/06:00am 7.8 ENE 3 4 - - 0.8 Recent precip. - - - - - -
20/05:30am 7.8 ENE 4 6 - - 0.6 - - - - - - -
20/05:00am 8.0 SE 6 7 - - 0.0 - - - - - - -
20/04:30am 7.8 CALM 0 2 - - 0.0 - - - - - - -
20/04:00am 8.1 SSE 1 4 - - 0.0 - - - - - - -
20/03:30am 8.2 SSE 2 3 - - 0.0 - - - - - - -
20/03:00am 8.0 E 3 4 - - 0.0 - - - - - - -
20/02:30am 7.8 SSE 2 3 - - 0.0 - - - - - - -
20/02:00am 7.5 SSW 2 2 - - 0.0 - - - - - - -
20/01:30am 6.9 S 2 3 - - 0.0 - - - - - - -
20/01:00am 6.8 ESE 1 2 - - 0.0 - - - - - - -
20/12:30am 7.1 ESE 3 4 - - 0.0 - - - - - - -
20/12:00am 7.0 ESE 4 5 - - 0.0 - - - - - - -
 
Date/Time
CST
Temp

°C
Wind Pressure Rain
since 9am
mm
Weather Cloud Vis
km
Sea
Height
m
Swell
Dir
 
Speed
knots
Gust
knots
hPa Trend Height
m
Period
s
Dir
19/11:30pm 6.4 ESE 5 6 - - 0.0 - - - - - - -
19/11:00pm 6.9 ESE 3 4 - - 0.0 - - - - - - -
19/10:30pm 6.4 ESE 4 5 - - 0.0 - - - - - - -
19/10:00pm 6.8 E 4 6 - - 0.0 - - - - - - -
19/09:30pm 6.9 SSE 4 5 - - 0.0 - - - - - - -
19/09:00pm 7.0 SE 3 5 - - 0.0 - - - - - - -
19/08:30pm 6.4 ESE 5 6 - - 0.0 - - - - - - -
19/08:00pm 6.7 SE 4 5 - - 0.0 - - - - - - -
19/07:30pm 7.6 SE 4 5 - - 0.0 - - - - - - -
19/07:00pm 8.2 SE 3 4 - - 0.0 - - - - - - -
19/06:30pm 7.6 SE 4 5 - - 0.0 - - - - - - -
19/06:00pm 7.8 S 5 6 - - 0.0 - - - - - - -
19/05:30pm 9.0 S 5 6 - - 0.0 - - - - - - -
19/05:00pm 10.4 SSE 7 9 - - 0.0 - - - - - - -
19/04:30pm 11.3 S 9 11 - - 0.0 - - - - - - -
19/04:00pm 11.3 SE 6 8 - - 0.0 - - - - - - -
19/03:30pm 11.5 SE 8 11 - - 0.0 - - - - - - -
19/03:00pm 12.7 SSE 7 10 - - 0.0 - - - - - - -
19/02:30pm 11.7 SE 11 14 - - 0.0 - - - - - - -
19/02:00pm 12.8 SE 8 13 - - 0.0 - - - - - - -
19/01:30pm 12.1 SE 6 10 - - 0.0 - - - - - - -
19/01:00pm 12.6 ESE 6 9 - - 0.0 - - - - - - -
19/12:30pm 12.0 SSE 7 10 - - 0.0 - - - - - - -
19/12:00pm 12.6 ESE 6 8 - - 0.0 - - - - - - -
19/11:30am 12.1 SE 8 10 - - 0.0 - - - - - - -
19/11:00am 12.0 ESE 4 6 - - 0.0 - - - - - - -
19/10:30am 12.2 E 9 11 - - 0.0 - - - - - - -
19/10:00am 12.0 ESE 10 14 - - 0.0 - - - - - - -
19/09:30am 11.8 ESE 7 10 - - 0.0 - - - - - - -
19/09:00am 10.6 ESE 6 7 - - 2.6 - - - - - - -
19/08:30am 9.6 ESE 4 5 - - 2.6 - - - - - - -
19/08:00am 9.1 ESE 4 6 - - 2.6 - - - - - - -
19/07:30am 8.3 ESE 3 5 - - 2.6 - - - - - - -
19/07:00am 6.9 SSE 3 4 - - 2.6 - - - - - - -
19/06:30am 6.7 SE 2 3 - - 2.6 - - - - - - -
19/06:00am 7.4 S 2 2 - - 2.6 - - - - - - -
19/05:30am 7.6 S 2 2 - - 2.6 - - - - - - -
19/05:00am 7.9 SW 3 3 - - 2.6 - - - - - - -
19/04:30am 7.8 SW 2 3 - - 2.6 - - - - - - -
19/04:00am 7.7 SW 3 4 - - 2.6 - - - - - - -
19/03:30am 7.4 SSW 3 3 - - 2.6 - - - - - - -
19/03:00am 7.3 S 4 5 - - 2.6 - - - - - - -
19/02:30am 6.9 WSW 3 4 - - 2.6 - - - - - - -
19/02:00am 7.7 W 3 3 - - 2.6 - - - - - - -
19/01:30am 7.9 W 3 4 - - 2.6 - - - - - - -
19/01:00am 8.3 SSW 1 3 - - 2.6 - - - - - - -
19/12:30am 8.4 ENE 4 6 - - 2.6 - - - - - - -
19/12:00am 8.4 E 4 5 - - 2.6 - - - - - - -
 
Date/Time
CST
Temp

°C
Wind Pressure Rain
since 9am
mm
Weather Cloud Vis
km
Sea
Height
m
Swell
Dir
 
Speed
knots
Gust
knots
hPa Trend Height
m
Period
s
Dir
18/11:30pm 8.3 CALM 0 0 - - 2.6 - - - - - - -
18/11:00pm 8.3 CALM 0 0 - - 2.6 - - - - - - -
18/10:30pm 8.1 CALM 0 0 - - 2.6 - - - - - - -
18/10:00pm 8.1 CALM 0 0 - - 2.6 - - - - - - -
18/09:30pm 7.9 CALM 0 0 - - 2.6 - - - - - - -
18/09:00pm 7.6 CALM 0 0 - - 2.6 - - - - - - -
18/08:30pm 8.1 E 3 4 - - 2.6 - - - - - - -
18/08:00pm 7.9 E 4 5 - - 2.6 - - - - - - -
18/07:30pm 8.6 E 4 5 - - 2.6 - - - - - - -
18/07:00pm 8.7 E 4 5 - - 2.6 - - - - - - -
18/06:30pm 9.1 SSE 3 3 - - 2.6 - - - - - - -
18/06:00pm 9.1 ESE 2 2 - - 2.6 - - - - - - -
18/05:30pm 9.8 ESE 2 3 - - 2.6 - - - - - - -
18/05:00pm 10.7 E 3 5 - - 2.6 - - - - - - -
18/04:30pm 10.6 ESE 7 9 - - 2.6 - - - - - - -
18/04:00pm 10.2 SSE 6 7 - - 2.6 - - - - - - -
18/03:30pm 10.5 S 10 13 - - 1.8 - - - - - - -
18/03:00pm 11.8 ENE 3 5 - - 1.6 - - - - - - -
18/02:30pm 11.7 E 4 5 - - 1.6 - - - - - - -
18/02:00pm 11.5 S 6 8 - - 1.6 - - - - - - -
18/01:30pm 11.8 E 1 5 - - 1.6 - - - - - - -
18/01:00pm 10.9 ENE 4 7 - - 1.6 - - - - - - -
18/12:30pm 11.3 ESE 10 12 - - 1.4 - - - - - - -
18/12:00pm 13.5 SSW 1 4 - - 1.2 - - - - - - -
18/11:30am 11.7 W 4 6 - - 1.2 - - - - - - -
18/11:00am 9.9 SW 3 4 - - 1.2 - - - - - - -
18/10:30am 10.8 WSW 4 5 - - 0.0 - - - - - - -
18/10:00am 10.0 NW 4 5 - - 0.0 - - - - - - -
18/09:30am 9.8 WNW 2 3 - - 0.0 - - - - - - -
18/09:00am 9.6 SSW 2 3 - - 3.8 Rain - - - - - -
18/08:30am 8.9 CALM 0 0 - - 3.4 - - - - - - -
18/08:00am 7.8 CALM 0 2 - - 3.4 - - - - - - -
18/07:30am 6.7 SSE 2 4 - - 3.4 - - - - - - -
18/07:00am 7.7 SW 3 3 - - 3.4 - - - - - - -
18/06:30am 8.3 SSW 3 6 - - 3.4 - - - - - - -
18/06:00am 7.7 SW 4 5 - - 3.4 - - - - - - -
18/05:30am 7.6 SW 3 5 - - 3.4 - - - - - - -
18/05:00am 7.9 S 4 5 - - 3.4 - - - - - - -
18/04:30am 6.8 WSW 5 6 - - 3.4 - - - - - - -
18/04:00am 7.3 WSW 2 3 - - 3.4 - - - - - - -
18/03:30am 6.4 WSW 2 2 - - 3.4 - - - - - - -
18/03:00am 7.7 SW 2 3 - - 3.2 - - - - - - -
18/02:30am 8.1 CALM 0 0 - - 3.2 - - - - - - -
18/02:00am 7.8 SSE 2 4 - - 3.2 - - - - - - -
18/01:30am 8.7 SW 2 3 - - 3.2 - - - - - - -
18/01:00am 9.1 SW 4 5 - - 3.2 - - - - - - -
18/12:30am 8.9 SW 4 6 - - 3.2 - - - - - - -
18/12:00am 8.3 SW 3 4 - - 3.2 Recent precip. - - - - - -
 
Date/Time
CST
Temp

°C
Wind Pressure Rain
since 9am
mm
Weather Cloud Vis
km
Sea
Height
m
Swell
Dir
 
Speed
knots
Gust
knots
hPa Trend Height
m
Period
s
Dir
17/11:30pm 9.2 WSW 4 5 - - 3.2 - - - - - - -
17/11:00pm 9.3 SW 6 8 - - 2.8 - - - - - - -
17/10:30pm 9.2 SW 4 6 - - 1.8 - - - - - - -
17/10:00pm 8.3 WSW 3 4 - - 1.8 - - - - - - -
17/09:30pm 9.0 S 2 3 - - 1.8 - - - - - - -
17/09:00pm 9.5 S 6 8 - - 1.6 Recent precip. - - - - - -
17/08:30pm 9.5 SW 5 6 - - 1.0 - - - - - - -

Other Formats:

Comma delimited format used in spreadsheet applications
http://www.bom.gov.au/fwo/IDS60701/IDS60701.94807.axf

JavaScript Object Notation format (JSON) in row-major order
http://www.bom.gov.au/fwo/IDS60701/IDS60701.94807.json